Time;durP1;ratioP1;P1;durP2;ratioP2;P2;SDS_P1;SDS_P2;PMS_P1;PMS_P2;Temp;Humidity;BMP_temperature;BMP_pressure;BME280_temperature;BME280_humidity;BME280_pressure;Samples;Min_cycle;Max_cycle;Signal;HPM_P1;HPM_P2
2022/08/21 00:01:32;;;;;;;;;;;;;;;17.66;53.61621;101725.5;;;;-77
2022/08/21 00:03:21;;;;;;;5;1.7;;;;;;;;;;;;;-76
2022/08/21 00:06:32;;;;;;;;;;;;;;;17.63;53.71289;101721.1;;;;-75
2022/08/21 00:11:34;;;;;;;;;;;;;;;17.58;53.59473;101718.6;;;;-75
2022/08/21 00:16:31;;;;;;;;;;;;;;;17.54;53.5791;101716.3;;;;-75
2022/08/21 00:21:31;;;;;;;;;;;;;;;17.52;53.58789;101710.5;;;;-75
2022/08/21 00:26:34;;;;;;;;;;;;;;;17.47;54.19238;101701.8;;;;-75
2022/08/21 00:31:31;;;;;;;;;;;;;;;17.44;53.71387;101702.3;;;;-75
2022/08/21 00:33:23;;;;;;;3.5;1.4;;;;;;;;;;;;;-76
2022/08/21 00:36:31;;;;;;;;;;;;;;;17.4;54.34375;101699;;;;-75
2022/08/21 00:41:38;;;;;;;;;;;;;;;17.39;53.71777;101698.3;;;;-76
2022/08/21 00:46:31;;;;;;;;;;;;;;;17.33;53.97266;101702.4;;;;-75
2022/08/21 00:51:34;;;;;;;;;;;;;;;17.3;54.33008;101705.5;;;;-75
2022/08/21 00:56:32;;;;;;;;;;;;;;;17.27;54.56445;101695.5;;;;-75
2022/08/21 01:01:33;;;;;;;;;;;;;;;17.25;54.8457;101705.4;;;;-76
2022/08/21 01:03:26;;;;;;;5.5;1.7;;;;;;;;;;;;;-75
2022/08/21 01:06:31;;;;;;;;;;;;;;;17.22;54.52539;101702.7;;;;-75
2022/08/21 01:11:31;;;;;;;;;;;;;;;17.19;54.81543;101703;;;;-75
2022/08/21 01:16:32;;;;;;;;;;;;;;;17.2;55.04297;101699.3;;;;-75
2022/08/21 01:21:31;;;;;;;;;;;;;;;17.19;55.05273;101695.7;;;;-77
2022/08/21 01:26:34;;;;;;;;;;;;;;;17.18;54.93848;101701.5;;;;-74
2022/08/21 01:31:32;;;;;;;;;;;;;;;17.14;55.60059;101701;;;;-75
2022/08/21 01:33:28;;;;;;;5.4;1.7;;;;;;;;;;;;;-75
2022/08/21 01:36:31;;;;;;;;;;;;;;;17.11;55.47266;101702.2;;;;-75
2022/08/21 01:41:31;;;;;;;;;;;;;;;17.08;55.33496;101695.4;;;;-75
2022/08/21 01:46:31;;;;;;;;;;;;;;;17.05;55.87402;101693.9;;;;-75
2022/08/21 01:51:31;;;;;;;;;;;;;;;17.06;56.02148;101691.9;;;;-75
2022/08/21 01:56:31;;;;;;;;;;;;;;;17.03;55.88184;101690.7;;;;-73
2022/08/21 02:01:31;;;;;;;;;;;;;;;17.02;56.89746;101683.2;;;;-76
2022/08/21 02:03:29;;;;;;;3.9;1.7;;;;;;;;;;;;;-75
2022/08/21 02:06:31;;;;;;;;;;;;;;;17.02;56.76367;101675.7;;;;-76
2022/08/21 02:11:31;;;;;;;;;;;;;;;16.97;56.55273;101677.6;;;;-76
2022/08/21 02:16:31;;;;;;;;;;;;;;;16.94;56.85449;101669.5;;;;-76
2022/08/21 02:21:31;;;;;;;;;;;;;;;16.95;56.25586;101662.2;;;;-75
2022/08/21 02:26:31;;;;;;;;;;;;;;;16.89;55.96582;101659.6;;;;-74
2022/08/21 02:31:31;;;;;;;;;;;;;;;16.88;56.12305;101664.4;;;;-75
2022/08/21 02:33:33;;;;;;;4.4;1.7;;;;;;;;;;;;;-76
2022/08/21 02:36:31;;;;;;;;;;;;;;;16.85;56.97754;101674.5;;;;-74
2022/08/21 02:41:32;;;;;;;;;;;;;;;16.8;56.55273;101671.1;;;;-74
2022/08/21 02:46:31;;;;;;;;;;;;;;;16.78;56.31445;101663.4;;;;-73
2022/08/21 02:51:31;;;;;;;;;;;;;;;16.73;57.01953;101661.7;;;;-74
2022/08/21 02:56:31;;;;;;;;;;;;;;;16.71;57.62695;101660.7;;;;-75
2022/08/21 03:01:31;;;;;;;;;;;;;;;16.7;57.66992;101657.3;;;;-75
2022/08/21 03:03:34;;;;;;;4.4;1.9;;;;;;;;;;;;;-74
2022/08/21 03:06:31;;;;;;;;;;;;;;;16.69;57.58008;101652.3;;;;-75
2022/08/21 03:11:33;;;;;;;;;;;;;;;16.69;57.60156;101648.9;;;;-73
2022/08/21 03:16:31;;;;;;;;;;;;;;;16.67;57.75781;101638.3;;;;-74
2022/08/21 03:21:31;;;;;;;;;;;;;;;16.63;57.76367;101638;;;;-76
2022/08/21 03:26:31;;;;;;;;;;;;;;;16.61;58.39355;101635.5;;;;-76
2022/08/21 03:31:32;;;;;;;;;;;;;;;16.6;58.2334;101626;;;;-74
2022/08/21 03:33:35;;;;;;;7.1;1.9;;;;;;;;;;;;;-74
2022/08/21 03:36:31;;;;;;;;;;;;;;;16.61;57.94238;101624.6;;;;-75
2022/08/21 03:41:31;;;;;;;;;;;;;;;16.58;58.00488;101620;;;;-75
2022/08/21 03:46:31;;;;;;;;;;;;;;;16.53;58.4502;101617.8;;;;-74
2022/08/21 03:51:32;;;;;;;;;;;;;;;16.53;58.83398;101618;;;;-75
2022/08/21 03:56:31;;;;;;;;;;;;;;;16.48;59.36914;101616.7;;;;-74
2022/08/21 04:01:31;;;;;;;;;;;;;;;16.48;59.86523;101616.8;;;;-74
2022/08/21 04:03:39;;;;;;;4.8;1.8;;;;;;;;;;;;;-75
2022/08/21 04:06:31;;;;;;;;;;;;;;;16.47;58.87012;101617;;;;-74
2022/08/21 04:11:31;;;;;;;;;;;;;;;16.46;59.53613;101617.9;;;;-76
2022/08/21 04:16:31;;;;;;;;;;;;;;;16.41;59.25781;101618.5;;;;-76
2022/08/21 04:21:31;;;;;;;;;;;;;;;16.38;59.2666;101622.7;;;;-75
2022/08/21 04:26:32;;;;;;;;;;;;;;;16.37;58.95898;101624.7;;;;-75
2022/08/21 04:31:31;;;;;;;;;;;;;;;16.33;59.14648;101629.4;;;;-74
2022/08/21 04:33:39;;;;;;;6.5;1.7;;;;;;;;;;;;;-75
2022/08/21 04:36:31;;;;;;;;;;;;;;;16.32;59.01953;101632.3;;;;-74
2022/08/21 04:41:31;;;;;;;;;;;;;;;16.32;59.50488;101636.3;;;;-75
2022/08/21 04:46:31;;;;;;;;;;;;;;;16.28;59.02637;101638.8;;;;-75
2022/08/21 04:51:33;;;;;;;;;;;;;;;16.28;59.04883;101638.6;;;;-74
2022/08/21 04:56:34;;;;;;;;;;;;;;;16.28;58.83594;101639.5;;;;-74
2022/08/21 05:01:32;;;;;;;;;;;;;;;16.28;59.10645;101645.5;;;;-75
2022/08/21 05:03:41;;;;;;;7;1.8;;;;;;;;;;;;;-74
2022/08/21 05:06:32;;;;;;;;;;;;;;;16.3;58.81543;101646.4;;;;-75
2022/08/21 05:11:31;;;;;;;;;;;;;;;16.31;59.16504;101642.3;;;;-75
2022/08/21 05:16:31;;;;;;;;;;;;;;;16.32;59.15625;101644;;;;-74
2022/08/21 05:21:31;;;;;;;;;;;;;;;16.34;59.66699;101641.6;;;;-74
2022/08/21 05:26:31;;;;;;;;;;;;;;;16.37;59.42188;101642.3;;;;-76
2022/08/21 05:31:31;;;;;;;;;;;;;;;16.43;60.16406;101652;;;;-74
2022/08/21 05:33:43;;;;;;;6.5;2.3;;;;;;;;;;;;;-74
2022/08/21 05:36:31;;;;;;;;;;;;;;;16.48;60.39551;101650.6;;;;-76
2022/08/21 05:41:31;;;;;;;;;;;;;;;16.52;60.52637;101648.5;;;;-75
2022/08/21 05:46:31;;;;;;;;;;;;;;;16.58;60.09375;101654.9;;;;-75
2022/08/21 05:51:31;;;;;;;;;;;;;;;16.74;60.5791;101655.6;;;;-76
2022/08/21 05:56:31;;;;;;;;;;;;;;;17.11;60.78711;101658.4;;;;-75
2022/08/21 06:01:31;;;;;;;;;;;;;;;17.58;60.8291;101658.5;;;;-74
2022/08/21 06:03:45;;;;;;;9.3;2.2;;;;;;;;;;;;;-76
2022/08/21 06:06:31;;;;;;;;;;;;;;;18.07;60.48926;101662;;;;-74
2022/08/21 06:11:31;;;;;;;;;;;;;;;18.48;59.9668;101657.7;;;;-76
2022/08/21 06:16:31;;;;;;;;;;;;;;;18.91;58.82031;101656.1;;;;-76
2022/08/21 06:21:31;;;;;;;;;;;;;;;19.32;57.9668;101648.9;;;;-76
2022/08/21 06:26:31;;;;;;;;;;;;;;;19.72;57.1543;101648.9;;;;-75
2022/08/21 06:31:32;;;;;;;;;;;;;;;20.09;56.4502;101648.8;;;;-76
2022/08/21 06:33:47;;;;;;;7.7;2.1;;;;;;;;;;;;;-75
2022/08/21 06:36:31;;;;;;;;;;;;;;;20.48;55.81641;101648;;;;-76
2022/08/21 06:41:31;;;;;;;;;;;;;;;20.82;54.95703;101643.5;;;;-76
2022/08/21 06:46:33;;;;;;;;;;;;;;;21.15;54.80273;101638.4;;;;-75
2022/08/21 06:51:31;;;;;;;;;;;;;;;21.45;54.69141;101642.5;;;;-73
2022/08/21 06:56:33;;;;;;;;;;;;;;;21.72;54.72461;101643.2;;;;-75
2022/08/21 07:01:31;;;;;;;;;;;;;;;22.01;54.58887;101640.8;;;;-75
2022/08/21 07:03:50;;;;;;;8.1;2.4;;;;;;;;;;;;;-75
2022/08/21 07:06:31;;;;;;;;;;;;;;;22.31;54.13281;101649.1;;;;-77
2022/08/21 07:11:31;;;;;;;;;;;;;;;22.54;53.97656;101642.5;;;;-74
2022/08/21 07:16:31;;;;;;;;;;;;;;;22.77;53.93555;101646.3;;;;-74
2022/08/21 07:21:31;;;;;;;;;;;;;;;22.99;53.61914;101646.3;;;;-77
2022/08/21 07:26:31;;;;;;;;;;;;;;;23.28;53.16992;101652.1;;;;-75
2022/08/21 07:31:31;;;;;;;;;;;;;;;23.49;52.9668;101648.8;;;;-76
2022/08/21 07:33:53;;;;;;;9.5;2.3;;;;;;;;;;;;;-75
2022/08/21 07:36:31;;;;;;;;;;;;;;;23.7;52.43945;101655.1;;;;-74
2022/08/21 07:41:35;;;;;;;;;;;;;;;23.99;52.06934;101652.8;;;;-75
2022/08/21 07:46:31;;;;;;;;;;;;;;;24.24;51.51074;101656.4;;;;-75
2022/08/21 07:51:33;;;;;;;;;;;;;;;24.49;51.9668;101653.4;;;;-76
2022/08/21 07:56:31;;;;;;;;;;;;;;;24.79;51.49414;101651.5;;;;-75
2022/08/21 08:01:31;;;;;;;;;;;;;;;25.15;51.07422;101649.6;;;;-75
2022/08/21 08:03:56;;;;;;;9.2;2.1;;;;;;;;;;;;;-75
2022/08/21 08:06:31;;;;;;;;;;;;;;;25.45;50.32324;101638;;;;-76
2022/08/21 08:11:31;;;;;;;;;;;;;;;25.77;49.71191;101644.6;;;;-75
2022/08/21 08:16:31;;;;;;;;;;;;;;;26.09;48.77539;101640.1;;;;-74
2022/08/21 08:21:33;;;;;;;;;;;;;;;26.33;48.54688;101641;;;;-76
2022/08/21 08:26:31;;;;;;;;;;;;;;;26.47;47.93652;101649.3;;;;-73
2022/08/21 08:31:31;;;;;;;;;;;;;;;26.62;48.3584;101643.4;;;;-75
2022/08/21 08:34:00;;;;;;;7.2;1.8;;;;;;;;;;;;;-74
2022/08/21 08:36:35;;;;;;;;;;;;;;;26.82;47.85742;101640.8;;;;-76
2022/08/21 08:41:32;;;;;;;;;;;;;;;27.07;47.38477;101631.9;;;;-76
2022/08/21 08:46:35;;;;;;;;;;;;;;;27.34;47.12402;101627.5;;;;-75
2022/08/21 08:51:37;;;;;;;;;;;;;;;27.68;46.49609;101628;;;;-74
2022/08/21 08:56:34;;;;;;;;;;;;;;;28.06;46.08203;101623.1;;;;-75
2022/08/21 09:01:31;;;;;;;;;;;;;;;28.41;45.52344;101628.1;;;;-74
2022/08/21 09:04:04;;;;;;;9.9;2.4;;;;;;;;;;;;;-75
2022/08/21 09:06:40;;;;;;;;;;;;;;;28.73;44.79883;101630.9;;;;-75
2022/08/21 09:11:37;;;;;;;;;;;;;;;29.08;43.74902;101629.5;;;;-75
2022/08/21 09:16:36;;;;;;;;;;;;;;;28.9;43.47461;101639.5;;;;-75
2022/08/21 09:21:35;;;;;;;;;;;;;;;28.47;43.86426;101639.4;;;;-75
2022/08/21 09:26:35;;;;;;;;;;;;;;;28.12;44.54004;101639.5;;;;-75
2022/08/21 09:31:33;;;;;;;;;;;;;;;28.18;45.39648;101636.1;;;;-75
2022/08/21 09:34:09;;;;;;;9.9;1.9;;;;;;;;;;;;;-76
2022/08/21 09:36:35;;;;;;;;;;;;;;;28.5;44.8457;101631.7;;;;-75
2022/08/21 09:41:34;;;;;;;;;;;;;;;28.93;44.31738;101631.6;;;;-76
2022/08/21 09:46:32;;;;;;;;;;;;;;;29.44;43.45605;101637.8;;;;-77
2022/08/21 09:51:33;;;;;;;;;;;;;;;29.86;42.10547;101630;;;;-75
2022/08/21 10:01:31;;;;;;;;;;;;;;;29.74;41.62695;101645.6;;;;-77
2022/08/21 10:04:13;;;;;;;6.5;1.8;;;;;;;;;;;;;-75
2022/08/21 10:06:34;;;;;;;;;;;;;;;29.36;42.06055;101640.6;;;;-75
2022/08/21 10:11:32;;;;;;;;;;;;;;;29.09;42.43164;101643.1;;;;-74
2022/08/21 10:16:36;;;;;;;;;;;;;;;28.9;42.37891;101643.9;;;;-75
2022/08/21 10:21:34;;;;;;;;;;;;;;;28.93;42.68555;101640.3;;;;-73
2022/08/21 10:26:43;;;;;;;;;;;;;;;29.22;42.39648;101645.5;;;;-77
2022/08/21 10:31:37;;;;;;;;;;;;;;;29.4;42.01563;101646.1;;;;-76
2022/08/21 10:34:24;;;;;;;6.2;1.4;;;;;;;;;;;;;-74
2022/08/21 10:36:37;;;;;;;;;;;;;;;29.62;41.84961;101639.1;;;;-74
2022/08/21 10:41:35;;;;;;;;;;;;;;;29.75;41.33594;101633;;;;-75
2022/08/21 10:46:35;;;;;;;;;;;;;;;29.82;41.20215;101635;;;;-75
2022/08/21 10:51:37;;;;;;;;;;;;;;;30.12;41.14746;101640.7;;;;-76
2022/08/21 10:56:34;;;;;;;;;;;;;;;30.54;40.22461;101644.9;;;;-75
2022/08/21 11:01:33;;;;;;;;;;;;;;;30.84;39.7002;101647.3;;;;-77
2022/08/21 11:04:24;;;;;;;6.3;1.4;;;;;;;;;;;;;-75
2022/08/21 11:06:35;;;;;;;;;;;;;;;30.95;39.46387;101647.6;;;;-75
2022/08/21 11:11:35;;;;;;;;;;;;;;;30.92;39.00391;101648.9;;;;-76
2022/08/21 11:16:35;;;;;;;;;;;;;;;30.95;39.49805;101652.3;;;;-76
2022/08/21 11:21:39;;;;;;;;;;;;;;;31.03;39.41211;101649.4;;;;-75
2022/08/21 11:26:34;;;;;;;;;;;;;;;31.17;39.40039;101650.2;;;;-75
2022/08/21 11:31:41;;;;;;;;;;;;;;;31.37;39.31152;101650.7;;;;-76
2022/08/21 11:34:34;;;;;;;3.6;1.1;;;;;;;;;;;;;-76
2022/08/21 11:36:36;;;;;;;;;;;;;;;31.52;39.33691;101659.8;;;;-75
2022/08/21 11:41:34;;;;;;;;;;;;;;;31.64;39.3584;101671.8;;;;-75
2022/08/21 11:46:36;;;;;;;;;;;;;;;31.71;39.42383;101675.9;;;;-74
2022/08/21 11:51:34;;;;;;;;;;;;;;;31.79;38.92578;101672.1;;;;-76
2022/08/21 11:56:34;;;;;;;;;;;;;;;31.75;38.93359;101665.5;;;;-76
2022/08/21 12:01:34;;;;;;;;;;;;;;;31.85;38.97754;101669.6;;;;-75
2022/08/21 12:04:33;;;;;;;3.5;1.2;;;;;;;;;;;;;-75
2022/08/21 12:06:38;;;;;;;;;;;;;;;31.9;38.25391;101668.8;;;;-76
2022/08/21 12:11:31;;;;;;;;;;;;;;;31.87;37.98145;101672.1;;;;-75
2022/08/21 12:16:38;;;;;;;;;;;;;;;31.8;38.49121;101668.9;;;;-77
2022/08/21 12:21:31;;;;;;;;;;;;;;;31.75;38.4873;101680.3;;;;-74
2022/08/21 12:26:32;;;;;;;;;;;;;;;31.67;38.12793;101683.4;;;;-77
2022/08/21 12:31:31;;;;;;;;;;;;;;;31.58;38.44922;101682.1;;;;-76
2022/08/21 12:34:42;;;;;;;4.5;1.2;;;;;;;;;;;;;-76
2022/08/21 12:36:37;;;;;;;;;;;;;;;31.53;38.46875;101686.5;;;;-75
2022/08/21 12:41:34;;;;;;;;;;;;;;;31.45;38.62695;101686.5;;;;-74
2022/08/21 12:46:34;;;;;;;;;;;;;;;31.44;38.49707;101686.7;;;;-76
2022/08/21 12:51:32;;;;;;;;;;;;;;;31.48;38.27637;101687.6;;;;-76
2022/08/21 12:56:34;;;;;;;;;;;;;;;31.49;38.80566;101686.7;;;;-76
2022/08/21 13:01:33;;;;;;;;;;;;;;;31.48;38.80566;101689.9;;;;-75
2022/08/21 13:04:42;;;;;;;3.8;1.2;;;;;;;;;;;;;-76
2022/08/21 13:06:34;;;;;;;;;;;;;;;31.44;38.7666;101686.9;;;;-75
2022/08/21 13:11:31;;;;;;;;;;;;;;;31.49;38.96973;101688.3;;;;-76
2022/08/21 13:16:32;;;;;;;;;;;;;;;31.74;38.72168;101690.7;;;;-75
2022/08/21 13:21:36;;;;;;;;;;;;;;;32.01;38.4502;101695.1;;;;-75
2022/08/21 13:26:31;;;;;;;;;;;;;;;32.22;38.35059;101697.4;;;;-75
2022/08/21 13:31:33;;;;;;;;;;;;;;;32.37;38.06934;101701;;;;-74
2022/08/21 13:34:48;;;;;;;3.2;1.2;;;;;;;;;;;;;-75
2022/08/21 13:36:33;;;;;;;;;;;;;;;32.53;38.09473;101697.9;;;;-75
2022/08/21 13:41:33;;;;;;;;;;;;;;;32.75;37.98242;101696.4;;;;-76
2022/08/21 13:46:34;;;;;;;;;;;;;;;32.94;37.94043;101684.3;;;;-75
2022/08/21 13:51:31;;;;;;;;;;;;;;;32.95;37.90527;101683.4;;;;-76
2022/08/21 13:56:32;;;;;;;;;;;;;;;32.88;37.80469;101689.9;;;;-75
2022/08/21 14:01:32;;;;;;;;;;;;;;;32.77;37.4541;101693.7;;;;-76
2022/08/21 14:04:55;;;;;;;4.1;1.3;;;;;;;;;;;;;-75
2022/08/21 14:06:32;;;;;;;;;;;;;;;32.71;37.48438;101687.4;;;;-76
2022/08/21 14:11:36;;;;;;;;;;;;;;;32.74;37.39258;101687;;;;-77
2022/08/21 14:16:32;;;;;;;;;;;;;;;32.71;37.35547;101690.5;;;;-74
2022/08/21 14:21:33;;;;;;;;;;;;;;;32.65;36.74902;101685.5;;;;-72
2022/08/21 14:26:31;;;;;;;;;;;;;;;32.53;35.66797;101678.7;;;;-75
2022/08/21 14:31:34;;;;;;;;;;;;;;;32.42;35.90625;101684.2;;;;-74
2022/08/21 14:34:57;;;;;;;4;1.1;;;;;;;;;;;;;-74
2022/08/21 14:36:31;;;;;;;;;;;;;;;32.28;35.61328;101689.1;;;;-73
2022/08/21 14:41:32;;;;;;;;;;;;;;;32.16;35.62793;101688.9;;;;-75
2022/08/21 14:46:33;;;;;;;;;;;;;;;32.01;34.97949;101686.2;;;;-74
2022/08/21 14:51:31;;;;;;;;;;;;;;;31.78;35.42188;101693;;;;-75
2022/08/21 14:56:31;;;;;;;;;;;;;;;31.52;36.11816;101696.3;;;;-76
2022/08/21 15:01:31;;;;;;;;;;;;;;;31.25;36.1084;101701.6;;;;-75
2022/08/21 15:05:03;;;;;;;3.9;1.3;;;;;;;;;;;;;-75
2022/08/21 15:06:31;;;;;;;;;;;;;;;31.03;36.18555;101700.3;;;;-75
2022/08/21 15:11:31;;;;;;;;;;;;;;;30.81;36.66016;101705.2;;;;-76
2022/08/21 15:16:31;;;;;;;;;;;;;;;30.65;36.71777;101711.5;;;;-75
2022/08/21 15:21:31;;;;;;;;;;;;;;;30.5;36.77539;101710.1;;;;-75
2022/08/21 15:26:31;;;;;;;;;;;;;;;30.44;36.6543;101712.2;;;;-75
2022/08/21 15:31:31;;;;;;;;;;;;;;;30.48;36.56348;101713.7;;;;-75
2022/08/21 15:35:08;;;;;;;8.8;2.8;;;;;;;;;;;;;-75
2022/08/21 15:36:31;;;;;;;;;;;;;;;30.46;36.18652;101715.2;;;;-74
2022/08/21 15:41:32;;;;;;;;;;;;;;;30.42;36.18359;101729.3;;;;-75
2022/08/21 15:46:31;;;;;;;;;;;;;;;30.36;36.34277;101720.2;;;;-76
2022/08/21 15:51:31;;;;;;;;;;;;;;;30.33;36.49316;101719.8;;;;-74
2022/08/21 15:56:32;;;;;;;;;;;;;;;30.3;36.26758;101715;;;;-75
2022/08/21 16:01:32;;;;;;;;;;;;;;;30.23;36.47363;101713.9;;;;-74
2022/08/21 16:05:16;;;;;;;5.3;1.8;;;;;;;;;;;;;-76
2022/08/21 16:06:31;;;;;;;;;;;;;;;30.13;36.53418;101711.8;;;;-76
2022/08/21 16:11:31;;;;;;;;;;;;;;;30.02;36.61914;101715.9;;;;-76
2022/08/21 16:16:32;;;;;;;;;;;;;;;29.88;36.85547;101721.2;;;;-75
2022/08/21 16:21:31;;;;;;;;;;;;;;;29.7;37.07422;101718.2;;;;-75
2022/08/21 16:26:31;;;;;;;;;;;;;;;29.46;37.56934;101721.2;;;;-75
2022/08/21 16:31:34;;;;;;;;;;;;;;;29.25;37.73926;101721.7;;;;-76
2022/08/21 16:35:18;;;;;;;6.8;2.5;;;;;;;;;;;;;-72
2022/08/21 16:36:31;;;;;;;;;;;;;;;29.08;37.72461;101718.2;;;;-75
2022/08/21 16:41:33;;;;;;;;;;;;;;;28.89;37.88477;101711.1;;;;-75
2022/08/21 16:46:33;;;;;;;;;;;;;;;28.71;38.13672;101713.5;;;;-74
2022/08/21 16:51:31;;;;;;;;;;;;;;;28.47;38.4082;101715.3;;;;-75
2022/08/21 16:56:32;;;;;;;;;;;;;;;28.21;38.96973;101718.6;;;;-74
2022/08/21 17:01:32;;;;;;;;;;;;;;;27.91;39.36328;101715.7;;;;-74
2022/08/21 17:05:22;;;;;;;5.5;2.2;;;;;;;;;;;;;-75
2022/08/21 17:06:31;;;;;;;;;;;;;;;27.63;39.53711;101717.2;;;;-76
2022/08/21 17:11:33;;;;;;;;;;;;;;;27.34;39.52344;101720.9;;;;-74
2022/08/21 17:16:31;;;;;;;;;;;;;;;27.07;39.63965;101722.5;;;;-74
2022/08/21 17:21:31;;;;;;;;;;;;;;;26.81;39.80176;101720.6;;;;-74
2022/08/21 17:26:31;;;;;;;;;;;;;;;26.54;39.74414;101714.9;;;;-75
2022/08/21 17:31:32;;;;;;;;;;;;;;;26.28;40.06934;101715.1;;;;-75
2022/08/21 17:35:26;;;;;;;4.9;2.2;;;;;;;;;;;;;-74
2022/08/21 17:36:32;;;;;;;;;;;;;;;26.03;40.15039;101712.2;;;;-76
2022/08/21 17:41:31;;;;;;;;;;;;;;;25.79;40.37305;101712.1;;;;-74
2022/08/21 17:46:31;;;;;;;;;;;;;;;25.55;40.53711;101711.5;;;;-76
2022/08/21 17:51:31;;;;;;;;;;;;;;;25.31;40.85059;101710.2;;;;-76
2022/08/21 17:56:32;;;;;;;;;;;;;;;25.08;40.8877;101709.6;;;;-74
2022/08/21 18:01:33;;;;;;;;;;;;;;;24.86;41.14551;101709.9;;;;-75
2022/08/21 18:05:30;;;;;;;5.2;1.7;;;;;;;;;;;;;-74
2022/08/21 18:06:31;;;;;;;;;;;;;;;24.65;41.2998;101707.7;;;;-75
2022/08/21 18:11:33;;;;;;;;;;;;;;;24.46;41.58301;101706.4;;;;-74
2022/08/21 18:16:32;;;;;;;;;;;;;;;24.27;41.87695;101709;;;;-74
2022/08/21 18:21:31;;;;;;;;;;;;;;;24.1;42.29883;101712.1;;;;-76
2022/08/21 18:26:33;;;;;;;;;;;;;;;23.92;42.62793;101709.8;;;;-76
2022/08/21 18:31:31;;;;;;;;;;;;;;;23.73;42.95605;101718.6;;;;-75
2022/08/21 18:35:34;;;;;;;5.9;1.8;;;;;;;;;;;;;-75
2022/08/21 18:36:31;;;;;;;;;;;;;;;23.54;43.3418;101714.8;;;;-73
2022/08/21 18:41:31;;;;;;;;;;;;;;;23.37;43.64746;101719.9;;;;-76
2022/08/21 18:46:32;;;;;;;;;;;;;;;23.19;44.00977;101721.2;;;;-75
2022/08/21 18:51:32;;;;;;;;;;;;;;;23;44.19824;101722.3;;;;-75
2022/08/21 18:56:32;;;;;;;;;;;;;;;22.83;44.6416;101725.9;;;;-74
2022/08/21 19:01:31;;;;;;;;;;;;;;;22.65;44.92285;101723.9;;;;-75
2022/08/21 19:05:42;;;;;;;4.5;1.5;;;;;;;;;;;;;-75
2022/08/21 19:06:31;;;;;;;;;;;;;;;22.48;45.22754;101726.4;;;;-74
2022/08/21 19:11:31;;;;;;;;;;;;;;;22.31;45.39258;101724.4;;;;-75
2022/08/21 19:16:32;;;;;;;;;;;;;;;22.16;45.89453;101730.5;;;;-76
2022/08/21 19:21:31;;;;;;;;;;;;;;;21.99;46.08398;101733.9;;;;-74
2022/08/21 19:26:32;;;;;;;;;;;;;;;21.86;46.5293;101738.1;;;;-75
2022/08/21 19:31:33;;;;;;;;;;;;;;;21.73;46.79102;101742.1;;;;-76
2022/08/21 19:35:42;;;;;;;4.3;1.7;;;;;;;;;;;;;-75
2022/08/21 19:36:31;;;;;;;;;;;;;;;21.59;46.93652;101745.4;;;;-75
2022/08/21 19:41:34;;;;;;;;;;;;;;;21.47;47.53027;101747.1;;;;-75
2022/08/21 19:46:33;;;;;;;;;;;;;;;21.35;47.5293;101750.6;;;;-76
2022/08/21 19:51:31;;;;;;;;;;;;;;;21.24;47.87305;101746.6;;;;-74
2022/08/21 19:56:32;;;;;;;;;;;;;;;21.13;48.1123;101750.2;;;;-76
2022/08/21 20:01:31;;;;;;;;;;;;;;;21.02;48.30664;101752.6;;;;-75
2022/08/21 20:05:44;;;;;;;4;1.4;;;;;;;;;;;;;-74
2022/08/21 20:06:31;;;;;;;;;;;;;;;20.91;48.35352;101755;;;;-76
2022/08/21 20:11:36;;;;;;;;;;;;;;;20.82;48.55957;101766;;;;-75
2022/08/21 20:16:32;;;;;;;;;;;;;;;20.72;48.62891;101764.8;;;;-77
2022/08/21 20:21:31;;;;;;;;;;;;;;;20.62;48.9375;101768.3;;;;-75
2022/08/21 20:26:31;;;;;;;;;;;;;;;20.53;48.97266;101767.9;;;;-75
2022/08/21 20:31:31;;;;;;;;;;;;;;;20.45;49.45605;101772.1;;;;-75
2022/08/21 20:35:48;;;;;;;3.5;1.6;;;;;;;;;;;;;-75
2022/08/21 20:36:31;;;;;;;;;;;;;;;20.34;49.52441;101771.1;;;;-75
2022/08/21 20:41:31;;;;;;;;;;;;;;;20.26;49.53809;101768.4;;;;-76
2022/08/21 20:46:32;;;;;;;;;;;;;;;20.2;49.73633;101768.6;;;;-76
2022/08/21 20:51:34;;;;;;;;;;;;;;;20.12;49.69434;101768.5;;;;-76
2022/08/21 20:56:35;;;;;;;;;;;;;;;20.06;49.81152;101763.4;;;;-76
2022/08/21 21:01:34;;;;;;;;;;;;;;;19.99;49.90625;101770.1;;;;-75
2022/08/21 21:05:51;;;;;;;4.9;1.7;;;;;;;;;;;;;-76
2022/08/21 21:06:32;;;;;;;;;;;;;;;19.91;49.73926;101766.8;;;;-73
2022/08/21 21:11:33;;;;;;;;;;;;;;;19.89;50.00879;101774.4;;;;-75
2022/08/21 21:16:35;;;;;;;;;;;;;;;19.81;49.93359;101774.4;;;;-77
2022/08/21 21:21:32;;;;;;;;;;;;;;;19.74;50.13086;101770.6;;;;-75
2022/08/21 21:26:34;;;;;;;;;;;;;;;19.7;50.19336;101773.4;;;;-76
2022/08/21 21:31:31;;;;;;;;;;;;;;;19.66;50.06445;101776.8;;;;-74
2022/08/21 21:35:56;;;;;;;3.7;1.6;;;;;;;;;;;;;-76
2022/08/21 21:36:33;;;;;;;;;;;;;;;19.61;50.30859;101774.9;;;;-74
2022/08/21 21:41:37;;;;;;;;;;;;;;;19.56;50.36035;101777.1;;;;-75
2022/08/21 21:46:36;;;;;;;;;;;;;;;19.52;50.62988;101784.3;;;;-76
2022/08/21 21:51:38;;;;;;;;;;;;;;;19.48;50.7041;101783.5;;;;-75
2022/08/21 21:56:36;;;;;;;;;;;;;;;19.45;50.74707;101785.4;;;;-76
2022/08/21 22:01:36;;;;;;;;;;;;;;;19.42;50.66406;101783.2;;;;-76
2022/08/21 22:05:59;;;;;;;3.7;1.8;;;;;;;;;;;;;-75
2022/08/21 22:06:38;;;;;;;;;;;;;;;19.39;50.68359;101786.2;;;;-76
2022/08/21 22:11:37;;;;;;;;;;;;;;;19.35;50.65625;101784.6;;;;-76
2022/08/21 22:16:31;;;;;;;;;;;;;;;19.34;50.71094;101787;;;;-74
2022/08/21 22:21:33;;;;;;;;;;;;;;;19.31;50.76465;101781.9;;;;-76
2022/08/21 22:26:38;;;;;;;;;;;;;;;19.29;50.7627;101777.8;;;;-77
2022/08/21 22:31:32;;;;;;;;;;;;;;;19.24;50.92676;101775.7;;;;-78
2022/08/21 22:35:59;;;;;;;4.1;1.9;;;;;;;;;;;;;-76
2022/08/21 22:36:32;;;;;;;;;;;;;;;19.19;50.9209;101771.4;;;;-73
2022/08/21 22:41:36;;;;;;;;;;;;;;;19.14;51.05273;101768.4;;;;-75
2022/08/21 22:46:36;;;;;;;;;;;;;;;19.1;51.01367;101767.8;;;;-76
2022/08/21 22:51:35;;;;;;;;;;;;;;;19.03;51.1416;101761.4;;;;-75
2022/08/21 22:56:37;;;;;;;;;;;;;;;18.95;51.34961;101761;;;;-76
2022/08/21 23:01:42;;;;;;;;;;;;;;;18.89;51.43359;101761.2;;;;-74
2022/08/21 23:06:01;;;;;;;3.8;1.6;;;;;;;;;;;;;-76
2022/08/21 23:06:34;;;;;;;;;;;;;;;18.84;51.60938;101762.4;;;;-76
2022/08/21 23:11:38;;;;;;;;;;;;;;;18.76;51.72461;101758.1;;;;-74
2022/08/21 23:16:38;;;;;;;;;;;;;;;18.72;51.70996;101756;;;;-74
2022/08/21 23:21:35;;;;;;;;;;;;;;;18.64;51.69922;101752.6;;;;-76
2022/08/21 23:26:35;;;;;;;;;;;;;;;18.57;51.75;101755.2;;;;-75
2022/08/21 23:31:35;;;;;;;;;;;;;;;18.5;51.85449;101752.9;;;;-75
2022/08/21 23:41:41;;;;;;;;;;;;;;;18.36;51.90625;101751.7;;;;-74
2022/08/21 23:46:48;;;;;;;;;;;;;;;18.28;51.91895;101751;;;;-75
2022/08/21 23:51:37;;;;;;;;;;;;;;;18.22;52.16211;101755.2;;;;-75
2022/08/21 23:56:36;;;;;;;;;;;;;;;18.19;52.09082;101754.5;;;;-75
